Time;durP1;ratioP1;P1;durP2;ratioP2;P2;SDS_P1;SDS_P2;PMS_P1;PMS_P2;Temp;Humidity;BMP_temperature;BMP_pressure;BME280_temperature;BME280_humidity;BME280_pressure;Samples;Min_cycle;Max_cycle;Signal;HPM_P1;HPM_P2
2021/08/21 00:00:13;;;;;;;7.22;6.00;;;15.80;99.90;;;;;;6178020;28;20093;-82
2021/08/21 00:03:14;;;;;;;7.07;6.28;;;16.00;99.90;;;;;;6160937;28;20027;-79
2021/08/21 00:06:15;;;;;;;8.13;6.45;;;15.90;99.90;;;;;;6177979;28;20022;-83
2021/08/21 00:09:15;;;;;;;6.60;5.90;;;15.80;99.90;;;;;;6160681;28;20026;-80
2021/08/21 00:12:16;;;;;;;9.80;6.72;;;15.90;99.90;;;;;;6177562;28;20023;-81
2021/08/21 00:15:19;;;;;;;10.27;6.00;;;15.90;99.90;;;;;;6178043;28;20150;-80
2021/08/21 00:18:20;;;;;;;7.57;6.80;;;15.70;99.90;;;;;;6177432;28;20031;-79
2021/08/21 00:21:20;;;;;;;7.60;6.18;;;15.90;99.90;;;;;;6177805;28;20031;-81
2021/08/21 00:24:21;;;;;;;8.30;6.32;;;15.80;99.90;;;;;;6177381;28;20724;-83
2021/08/21 00:27:23;;;;;;;13.00;6.50;;;15.90;99.90;;;;;;6177476;28;20366;-79
2021/08/21 00:30:24;;;;;;;9.88;6.13;;;;;;;;;;6177386;28;20030;-78
2021/08/21 00:33:25;;;;;;;8.05;6.45;;;;;;;;;;6177924;28;20349;-82
2021/08/21 00:36:26;;;;;;;8.15;6.13;;;16.00;99.90;;;;;;6177274;28;20259;-81
2021/08/21 00:39:26;;;;;;;9.95;6.57;;;15.80;99.90;;;;;;6176810;28;20058;-79
2021/08/21 00:42:27;;;;;;;7.65;6.40;;;;;;;;;;6159967;28;20106;-79
2021/08/21 00:45:28;;;;;;;8.38;6.07;;;15.60;99.90;;;;;;6176770;28;20338;-79
2021/08/21 00:48:28;;;;;;;6.15;5.55;;;15.70;99.90;;;;;;6177108;28;20030;-83
2021/08/21 00:51:29;;;;;;;7.38;6.18;;;15.60;99.90;;;;;;6159515;28;20420;-80
2021/08/21 00:54:30;;;;;;;7.45;6.28;;;15.70;99.90;;;;;;6159882;28;20019;-80
2021/08/21 00:57:31;;;;;;;7.60;6.65;;;;;;;;;;6159282;28;20099;-79
2021/08/21 01:00:32;;;;;;;6.97;5.28;;;15.50;99.90;;;;;;6176555;28;20035;-82
2021/08/21 01:03:32;;;;;;;7.07;6.18;;;15.90;99.90;;;;;;6158252;28;20034;-80
2021/08/21 01:06:33;;;;;;;7.35;5.75;;;15.60;99.90;;;;;;6176618;28;20027;-80
2021/08/21 01:09:40;;;;;;;8.18;6.35;;;15.60;99.90;;;;;;6176559;28;20031;-80
2021/08/21 01:12:42;;;;;;;10.23;6.53;;;15.50;99.90;;;;;;6158944;28;20023;-82
2021/08/21 01:15:43;;;;;;;9.10;6.33;;;;;;;;;;6159545;28;20077;-81
2021/08/21 01:18:43;;;;;;;7.40;6.25;;;15.50;99.90;;;;;;6176067;28;20385;-80
2021/08/21 01:21:45;;;;;;;7.20;6.10;;;15.60;99.90;;;;;;6158828;28;20019;-80
2021/08/21 01:24:50;;;;;;;5.88;5.05;;;15.40;99.90;;;;;;6159105;28;20022;-80
2021/08/21 01:27:51;;;;;;;9.68;6.47;;;15.50;99.90;;;;;;6176064;28;20023;-82
2021/08/21 01:30:51;;;;;;;6.95;6.03;;;15.60;99.90;;;;;;6176034;28;20030;-80
2021/08/21 01:33:52;;;;;;;9.77;6.15;;;15.30;99.90;;;;;;6176035;28;20035;-82
2021/08/21 01:36:52;;;;;;;9.95;7.00;;;15.50;99.90;;;;;;6158242;28;20049;-81
2021/08/21 01:39:54;;;;;;;9.13;6.78;;;15.40;99.90;;;;;;6158639;28;20039;-79
2021/08/21 01:42:55;;;;;;;8.63;6.65;;;15.20;99.90;;;;;;6158707;28;20060;-79
2021/08/21 01:45:55;;;;;;;9.05;7.05;;;15.50;99.90;;;;;;6158491;28;20027;-80
2021/08/21 01:48:56;;;;;;;7.03;6.28;;;15.30;99.90;;;;;;6176008;28;20053;-82
2021/08/21 01:52:03;;;;;;;9.43;6.40;;;15.40;99.90;;;;;;6175368;28;20030;-80
2021/08/21 01:55:05;;;;;;;10.25;6.00;;;15.40;99.90;;;;;;6175575;28;20097;-79
2021/08/21 01:58:06;;;;;;;7.97;6.43;;;15.50;99.90;;;;;;6158079;28;20034;-81
2021/08/21 02:01:06;;;;;;;7.63;6.18;;;15.50;99.90;;;;;;6175445;28;20034;-81
2021/08/21 02:04:07;;;;;;;7.13;6.00;;;15.30;99.90;;;;;;6175141;28;20038;-83
2021/08/21 02:07:08;;;;;;;9.57;6.80;;;;;;;;;;6175005;28;20023;-80
2021/08/21 02:10:09;;;;;;;11.00;7.05;;;14.70;99.90;;;;;;6175180;28;20468;-82
2021/08/21 02:13:10;;;;;;;9.32;6.43;;;15.20;99.90;;;;;;6157604;28;20022;-81
2021/08/21 02:16:10;;;;;;;8.98;7.03;;;15.20;99.90;;;;;;6175049;28;20361;-81
2021/08/21 02:19:11;;;;;;;6.68;5.97;;;;;;;;;;6157712;28;20122;-80
2021/08/21 02:22:12;;;;;;;7.03;5.88;;;15.30;99.90;;;;;;6157797;28;20042;-79
2021/08/21 02:25:13;;;;;;;7.20;6.50;;;15.20;99.90;;;;;;6175117;28;20356;-80
2021/08/21 02:28:19;;;;;;;6.13;5.53;;;;;;;;;;6175038;28;20026;-79
2021/08/21 02:31:24;;;;;;;8.07;6.38;;;15.20;99.90;;;;;;6175188;28;20027;-80
2021/08/21 02:34:25;;;;;;;8.10;6.32;;;15.10;99.90;;;;;;6174958;28;20026;-83
2021/08/21 02:37:26;;;;;;;6.45;5.85;;;15.20;99.90;;;;;;6175121;28;20096;-78
2021/08/21 02:40:27;;;;;;;7.75;5.40;;;;;;;;;;6174833;28;20377;-79
2021/08/21 02:43:28;;;;;;;10.05;7.32;;;;;;;;;;6174729;28;20062;-79
2021/08/21 02:46:28;;;;;;;7.53;6.03;;;14.90;99.90;;;;;;6174560;28;20030;-81
2021/08/21 02:49:29;;;;;;;9.30;6.28;;;15.10;99.90;;;;;;6174639;28;20023;-80
2021/08/21 02:52:30;;;;;;;6.78;5.80;;;;;;;;;;6174711;28;20027;-80
2021/08/21 02:55:31;;;;;;;8.68;6.38;;;;;;;;;;6174813;28;20026;-80
2021/08/21 02:58:32;;;;;;;7.13;6.32;;;15.10;99.90;;;;;;6174761;28;20077;-80
2021/08/21 03:01:32;;;;;;;10.43;6.82;;;14.80;99.90;;;;;;6174639;28;20018;-80
2021/08/21 03:04:33;;;;;;;11.20;6.97;;;15.20;99.90;;;;;;6157115;28;20042;-83
2021/08/21 03:07:34;;;;;;;6.68;6.00;;;;;;;;;;6174567;28;20381;-81
2021/08/21 03:10:34;;;;;;;7.05;6.35;;;15.10;99.90;;;;;;6174872;28;20015;-80
2021/08/21 03:13:35;;;;;;;7.05;6.35;;;15.10;99.90;;;;;;6174465;28;20027;-80
2021/08/21 03:16:35;;;;;;;7.90;6.45;;;15.20;99.90;;;;;;6140938;28;20085;-79
2021/08/21 03:19:36;;;;;;;6.68;5.97;;;15.10;99.90;;;;;;6174108;28;20050;-79
2021/08/21 03:22:37;;;;;;;7.50;5.60;;;14.90;99.90;;;;;;6174824;28;20023;-84
2021/08/21 03:25:37;;;;;;;7.05;5.75;;;15.00;99.90;;;;;;6174165;28;20027;-83
2021/08/21 03:28:38;;;;;;;9.68;6.60;;;15.40;99.90;;;;;;6177400;28;20031;-79
2021/08/21 03:31:38;;;;;;;7.88;6.03;;;15.00;99.90;;;;;;6161393;28;20022;-80
2021/08/21 03:34:39;;;;;;;7.25;5.88;;;14.90;99.90;;;;;;6161442;28;20019;-80
2021/08/21 03:37:40;;;;;;;7.50;5.72;;;14.90;99.90;;;;;;6178138;28;20134;-80
2021/08/21 03:40:40;;;;;;;7.78;6.97;;;14.90;99.90;;;;;;6178709;28;20051;-80
2021/08/21 03:43:41;;;;;;;7.20;6.30;;;14.90;99.90;;;;;;6161700;28;20023;-82
2021/08/21 03:46:42;;;;;;;7.68;6.80;;;14.90;99.90;;;;;;6178292;28;20050;-78
2021/08/21 03:49:43;;;;;;;10.35;6.50;;;;;;;;;;6161287;28;20074;-82
2021/08/21 03:52:43;;;;;;;9.52;6.78;;;14.90;99.90;;;;;;6161317;28;20361;-80
2021/08/21 03:55:44;;;;;;;8.02;6.43;;;15.00;99.90;;;;;;6178282;28;20109;-80
2021/08/21 03:58:44;;;;;;;7.88;6.90;;;15.00;99.90;;;;;;6160968;28;20045;-80
2021/08/21 04:01:45;;;;;;;7.20;6.22;;;14.90;99.90;;;;;;6178280;28;20026;-79
2021/08/21 04:04:45;;;;;;;8.15;6.25;;;14.80;99.90;;;;;;6177959;28;20033;-82
2021/08/21 04:07:46;;;;;;;10.18;6.15;;;14.80;99.90;;;;;;6160915;28;20452;-79
2021/08/21 04:10:47;;;;;;;6.80;6.10;;;14.70;99.90;;;;;;6178057;28;20023;-83
2021/08/21 04:13:47;;;;;;;7.18;5.72;;;14.70;99.90;;;;;;6177637;28;20069;-81
2021/08/21 04:16:48;;;;;;;7.32;6.47;;;14.90;99.90;;;;;;6177748;28;20074;-83
2021/08/21 04:19:48;;;;;;;10.50;7.85;;;14.50;99.90;;;;;;6160120;28;20536;-79
2021/08/21 04:22:49;;;;;;;9.05;6.80;;;14.30;99.90;;;;;;6177830;28;20042;-78
2021/08/21 04:25:50;;;;;;;7.88;6.70;;;14.30;99.90;;;;;;6177676;28;20106;-79
2021/08/21 04:28:50;;;;;;;8.43;6.60;;;14.60;99.90;;;;;;6160443;28;20038;-80
2021/08/21 04:31:51;;;;;;;9.00;6.28;;;14.70;99.90;;;;;;6177528;28;20098;-83
2021/08/21 04:34:52;;;;;;;7.63;6.93;;;;;;;;;;6177655;28;20413;-80
2021/08/21 04:37:52;;;;;;;9.55;7.40;;;14.60;99.90;;;;;;6177013;28;20043;-82
2021/08/21 04:40:54;;;;;;;10.38;8.45;;;;;;;;;;6177667;28;20082;-80
2021/08/21 04:43:54;;;;;;;11.75;7.00;;;14.70;99.90;;;;;;6177056;28;20018;-79
2021/08/21 04:46:55;;;;;;;8.40;7.00;;;;;;;;;;6176992;28;20019;-80
2021/08/21 04:49:56;;;;;;;8.75;6.60;;;14.50;99.90;;;;;;6177093;28;20062;-78
2021/08/21 04:52:56;;;;;;;7.28;6.50;;;14.70;99.90;;;;;;6176910;28;20034;-81
2021/08/21 04:55:57;;;;;;;10.20;7.07;;;14.80;99.90;;;;;;6177077;28;20054;-78
2021/08/21 04:58:59;;;;;;;8.18;6.30;;;14.70;99.90;;;;;;6176577;28;20412;-80
2021/08/21 05:01:59;;;;;;;7.38;6.63;;;14.70;99.90;;;;;;6159531;28;20367;-82
2021/08/21 05:05:00;;;;;;;8.73;6.68;;;14.60;99.90;;;;;;6159320;28;20042;-83
2021/08/21 05:08:01;;;;;;;8.32;7.03;;;;;;;;;;6176978;28;20031;-79
2021/08/21 05:11:01;;;;;;;8.88;6.43;;;14.50;99.90;;;;;;6176861;28;20073;-81
2021/08/21 05:14:02;;;;;;;8.40;6.55;;;14.60;99.90;;;;;;6176300;28;20019;-79
2021/08/21 05:17:05;;;;;;;7.18;6.40;;;14.70;99.90;;;;;;6159276;28;20476;-81
2021/08/21 05:20:09;;;;;;;7.47;6.57;;;14.90;99.90;;;;;;6176119;28;20043;-81
2021/08/21 05:23:16;;;;;;;8.73;6.47;;;15.10;99.90;;;;;;6176494;28;20023;-82
2021/08/21 05:26:16;;;;;;;7.30;6.55;;;15.20;99.90;;;;;;6158698;28;20023;-81
2021/08/21 05:29:17;;;;;;;9.70;7.28;;;15.60;99.90;;;;;;6176474;28;20472;-82
2021/08/21 05:32:18;;;;;;;7.07;6.30;;;16.20;99.90;;;;;;6175653;28;20047;-80
2021/08/21 05:35:18;;;;;;;8.15;6.55;;;16.20;99.90;;;;;;6176136;28;20047;-80
2021/08/21 05:38:19;;;;;;;10.63;7.18;;;16.20;99.90;;;;;;6175531;28;20054;-82
2021/08/21 05:41:19;;;;;;;9.45;6.90;;;16.40;99.90;;;;;;6158593;28;20062;-82
2021/08/21 05:44:20;;;;;;;7.63;6.57;;;16.70;99.90;;;;;;6158523;28;20027;-80
2021/08/21 05:47:21;;;;;;;8.80;6.43;;;17.30;99.90;;;;;;6158180;28;20019;-81
2021/08/21 05:50:21;;;;;;;7.47;6.32;;;18.00;99.90;;;;;;6175084;28;20035;-80
2021/08/21 05:53:22;;;;;;;6.90;5.78;;;18.90;99.90;;;;;;6158397;28;20014;-82
2021/08/21 05:56:23;;;;;;;7.10;6.40;;;19.10;99.90;;;;;;6175751;28;20069;-81
2021/08/21 05:59:24;;;;;;;6.72;6.03;;;19.60;99.90;;;;;;6175611;28;20035;-83
2021/08/21 06:02:25;;;;;;;8.38;6.65;;;20.40;99.90;;;;;;6175475;28;20027;-83
2021/08/21 06:05:26;;;;;;;11.45;6.15;;;20.60;99.90;;;;;;6142146;28;20027;-81
2021/08/21 06:08:26;;;;;;;10.52;6.40;;;21.10;99.90;;;;;;6175154;28;20027;-82
2021/08/21 06:11:27;;;;;;;9.13;6.43;;;21.70;99.90;;;;;;6157753;28;20057;-82
2021/08/21 06:14:28;;;;;;;8.65;5.82;;;22.10;99.90;;;;;;6175590;28;20421;-81
2021/08/21 06:17:28;;;;;;;9.85;6.70;;;22.30;99.90;;;;;;6157717;28;20025;-82
2021/08/21 06:20:29;;;;;;;18.77;6.22;;;22.60;99.90;;;;;;6174734;28;20380;-81
2021/08/21 06:23:31;;;;;;;21.77;6.88;;;22.50;99.90;;;;;;6175112;28;20074;-81
2021/08/21 06:26:32;;;;;;;;;;;22.70;99.90;;;;;;6158232;28;20425;-81
2021/08/21 06:29:35;;;;;;;9.05;5.78;;;22.90;99.90;;;;;;6141765;28;19937;-81
2021/08/21 06:32:35;;;;;;;8.18;5.60;;;23.30;99.50;;;;;;6158102;28;20396;-80
2021/08/21 06:35:36;;;;;;;8.48;6.15;;;24.10;99.90;;;;;;6157287;28;20023;-80
2021/08/21 06:38:36;;;;;;;6.85;5.50;;;24.30;99.90;;;;;;6157165;28;20051;-82
2021/08/21 06:41:37;;;;;;;8.45;6.68;;;24.20;96.60;;;;;;6157368;28;20018;-80
2021/08/21 06:44:37;;;;;;;7.13;6.10;;;24.50;96.50;;;;;;6174610;28;20092;-82
2021/08/21 06:47:38;;;;;;;6.10;5.50;;;24.50;96.40;;;;;;6174624;28;20031;-80
2021/08/21 06:50:39;;;;;;;6.47;5.77;;;24.70;95.50;;;;;;6174702;28;20031;-81
2021/08/21 06:53:40;;;;;;;7.18;6.13;;;24.90;95.30;;;;;;6174812;28;20023;-81
2021/08/21 06:56:40;;;;;;;9.88;6.60;;;25.20;99.90;;;;;;6174832;28;20019;-81
2021/08/21 06:59:41;;;;;;;8.17;5.90;;;25.50;99.90;;;;;;6174372;28;20035;-81
2021/08/21 07:02:41;;;;;;;7.60;6.10;;;25.40;99.90;;;;;;6178358;28;20094;-80
2021/08/21 07:05:42;;;;;;;7.43;6.03;;;25.70;99.90;;;;;;6179651;28;20027;-80
2021/08/21 07:08:43;;;;;;;6.67;5.40;;;25.90;99.90;;;;;;6161906;28;20031;-81
2021/08/21 07:11:43;;;;;;;7.37;5.87;;;26.10;99.90;;;;;;6179704;28;20026;-80
2021/08/21 07:14:44;;;;;;;6.83;6.00;;;26.30;99.90;;;;;;6179471;28;20069;-81
2021/08/21 07:17:44;;;;;;;7.97;5.60;;;26.50;99.90;;;;;;6179039;28;20078;-82
2021/08/21 07:20:45;;;;;;;8.23;6.13;;;;;;;;;;6179178;28;20031;-83
2021/08/21 07:23:46;;;;;;;6.93;5.83;;;27.10;94.10;;;;;;6161637;28;20030;-81
2021/08/21 07:26:47;;;;;;;6.80;5.97;;;;;;;;;;6178791;28;20031;-79
2021/08/21 07:29:48;;;;;;;8.63;6.55;;;27.60;99.90;;;;;;6178674;28;20019;-83
2021/08/21 07:32:48;;;;;;;8.83;6.53;;;27.90;99.90;;;;;;6161484;28;20058;-82
2021/08/21 07:35:49;;;;;;;7.47;6.23;;;;;;;;;;6161810;28;20047;-81
2021/08/21 07:38:52;;;;;;;6.97;6.27;;;28.10;91.90;;;;;;6178730;28;20057;-84
2021/08/21 07:41:52;;;;;;;7.28;5.93;;;28.90;93.50;;;;;;6178388;28;20254;-79
2021/08/21 07:44:53;;;;;;;7.50;5.93;;;28.70;88.40;;;;;;6161298;28;20062;-77
2021/08/21 07:47:53;;;;;;;7.23;6.13;;;29.20;83.40;;;;;;6161248;28;20023;-80
2021/08/21 07:50:54;;;;;;;8.30;6.10;;;29.40;81.70;;;;;;6145121;28;20515;-81
2021/08/21 07:53:54;;;;;;;9.07;5.87;;;29.60;78.60;;;;;;6179499;28;20055;-83
2021/08/21 07:56:55;;;;;;;6.10;5.50;;;30.00;77.10;;;;;;6178482;28;20034;-81
2021/08/21 07:59:56;;;;;;;6.90;6.00;;;30.10;77.20;;;;;;6177945;28;20114;-82
2021/08/21 08:02:56;;;;;;;6.70;6.00;;;30.00;90.60;;;;;;6177782;28;20346;-82
2021/08/21 08:05:57;;;;;;;5.83;5.27;;;30.00;75.80;;;;;;6177847;28;20073;-78
2021/08/21 08:08:57;;;;;;;6.13;5.53;;;30.20;74.70;;;;;;6178046;28;20465;-81
2021/08/21 08:11:58;;;;;;;6.23;5.37;;;30.10;75.20;;;;;;6179240;28;20099;-81
2021/08/21 08:14:59;;;;;;;11.33;5.90;;;30.60;72.70;;;;;;6177026;28;20023;-79
2021/08/21 08:17:59;;;;;;;7.57;6.10;;;30.60;72.90;;;;;;6177561;28;20022;-80
2021/08/21 08:21:00;;;;;;;7.00;5.97;;;30.50;73.70;;;;;;6177938;28;20149;-80
2021/08/21 08:24:00;;;;;;;7.57;5.80;;;30.80;74.20;;;;;;6178143;28;20026;-81
2021/08/21 08:27:01;;;;;;;6.07;5.47;;;30.90;73.30;;;;;;6177736;28;20027;-83
2021/08/21 08:30:02;;;;;;;6.53;5.93;;;31.00;72.00;;;;;;6160051;28;20022;-79
2021/08/21 08:33:03;;;;;;;;;;;31.10;71.20;;;;;;6161106;28;20042;-81
2021/08/21 08:36:04;;;;;;;7.23;5.73;;;31.30;70.90;;;;;;6177267;28;19914;-83
2021/08/21 08:39:04;;;;;;;8.03;5.40;;;31.60;84.90;;;;;;6159736;28;20051;-81
2021/08/21 08:42:06;;;;;;;5.40;4.90;;;31.70;70.90;;;;;;6177184;28;20018;-81
2021/08/21 08:45:11;;;;;;;6.18;4.93;;;31.60;71.60;;;;;;6160122;28;20445;-82
2021/08/21 08:48:15;;;;;;;6.18;5.57;;;31.80;70.90;;;;;;6159760;28;20106;-80
2021/08/21 08:51:16;;;;;;;6.32;5.25;;;31.80;70.70;;;;;;6159794;28;20126;-83
2021/08/21 08:54:16;;;;;;;6.07;5.47;;;31.80;69.80;;;;;;6159674;28;20465;-81
2021/08/21 08:57:38;;;;;;;5.47;4.97;;;31.80;70.80;;;;;;6176631;28;20471;-81
2021/08/21 09:00:38;;;;;;;;;;;32.00;70.00;;;;;;6160076;28;20376;-80
2021/08/21 09:03:39;;;;;;;8.63;5.40;;;32.80;70.20;;;;;;6176965;28;20370;-79
2021/08/21 09:06:40;;;;;;;6.07;5.47;;;32.00;69.10;;;;;;6176804;28;20042;-81
2021/08/21 09:09:42;;;;;;;5.70;5.03;;;32.20;69.10;;;;;;6159146;28;20289;-81
2021/08/21 09:12:44;;;;;;;6.20;5.60;;;32.40;68.80;;;;;;6176421;28;20023;-80
2021/08/21 09:15:52;;;;;;;7.85;5.97;;;32.50;67.00;;;;;;6176227;28;20030;-79
2021/08/21 09:19:05;;;;;;;7.40;5.38;;;32.20;66.80;;;;;;6159417;28;20446;-81
2021/08/21 09:22:06;;;;;;;6.47;5.30;;;32.60;65.40;;;;;;6158636;28;20370;-82
2021/08/21 09:25:09;;;;;;;6.72;6.10;;;32.60;66.50;;;;;;6141994;28;20030;-81
2021/08/21 09:28:26;;;;;;;6.63;5.53;;;32.50;65.60;;;;;;6159005;28;20037;-81
2021/08/21 09:31:32;;;;;;;8.27;5.65;;;32.50;64.40;;;;;;6176032;28;20019;-82
2021/08/21 09:34:33;;;;;;;6.07;5.47;;;32.60;67.50;;;;;;6158640;28;20097;-80
2021/08/21 09:37:48;;;;;;;6.70;6.00;;;32.80;65.60;;;;;;6175856;28;20090;-83
2021/08/21 09:40:49;;;;;;;6.15;5.55;;;33.00;65.20;;;;;;6175480;28;20050;-82
2021/08/21 09:43:51;;;;;;;7.20;6.15;;;33.10;63.70;;;;;;6176521;28;20465;-81
2021/08/21 09:47:26;;;;;;;6.82;5.80;;;33.20;64.30;;;;;;6142745;28;20037;-81
2021/08/21 09:50:30;;;;;;;7.53;5.93;;;33.20;65.20;;;;;;6176299;28;20022;-81
2021/08/21 09:53:37;;;;;;;8.10;5.45;;;33.30;66.00;;;;;;6158259;28;20079;-80
2021/08/21 09:56:41;;;;;;;6.70;6.00;;;33.20;64.60;;;;;;6175724;28;20030;-81
2021/08/21 09:59:43;;;;;;;6.63;5.68;;;33.20;65.30;;;;;;6158421;28;20044;-82
2021/08/21 10:02:44;;;;;;;6.65;6.05;;;33.20;66.80;;;;;;6158683;28;20106;-80
2021/08/21 10:05:48;;;;;;;8.60;5.78;;;33.20;64.40;;;;;;6158443;28;20033;-80
2021/08/21 10:08:50;;;;;;;6.95;6.25;;;33.30;65.00;;;;;;6175441;28;20027;-80
2021/08/21 10:11:52;;;;;;;6.13;5.57;;;33.20;65.00;;;;;;6157935;28;20034;-80
2021/08/21 10:14:53;;;;;;;5.95;5.35;;;33.30;64.80;;;;;;6175519;28;20024;-81
2021/08/21 10:17:54;;;;;;;7.18;5.88;;;33.50;65.80;;;;;;6157802;28;20480;-80
2021/08/21 10:20:55;;;;;;;;;;;33.50;64.20;;;;;;6175791;28;20026;-81
2021/08/21 10:23:56;;;;;;;6.20;5.23;;;33.60;65.10;;;;;;6174802;28;19909;-83
2021/08/21 10:27:02;;;;;;;6.50;5.43;;;33.70;64.70;;;;;;6174678;28;20067;-81
2021/08/21 10:30:14;;;;;;;9.10;6.20;;;33.70;64.40;;;;;;6157882;28;20030;-82
2021/08/21 10:33:15;;;;;;;6.45;5.82;;;33.90;63.80;;;;;;6157617;28;20023;-81
2021/08/21 10:36:39;;;;;;;6.25;5.60;;;33.80;64.00;;;;;;6157638;28;20449;-81
2021/08/21 10:39:40;;;;;;;6.43;5.72;;;33.90;65.00;;;;;;6159350;28;20047;-80
2021/08/21 10:42:41;;;;;;;;;;;33.80;63.80;;;;;;6158193;28;20086;-81
2021/08/21 10:45:45;;;;;;;8.07;6.57;;;33.60;64.90;;;;;;6157542;28;19906;-80
2021/08/21 10:48:49;;;;;;;6.30;5.53;;;33.60;64.70;;;;;;6157324;28;20042;-80
2021/08/21 10:51:50;;;;;;;5.57;5.00;;;34.00;90.70;;;;;;6157010;28;20117;-81
2021/08/21 10:54:51;;;;;;;;;;;34.10;73.70;;;;;;6174881;28;20018;-81
2021/08/21 10:57:54;;;;;;;6.00;5.40;;;33.70;65.90;;;;;;6157130;28;19930;-82
2021/08/21 11:01:06;;;;;;;6.30;5.70;;;33.80;64.70;;;;;;6175199;28;20325;-80
2021/08/21 11:04:07;;;;;;;6.55;5.65;;;33.60;64.40;;;;;;6157770;28;20027;-81
2021/08/21 11:07:29;;;;;;;8.52;5.78;;;33.60;65.00;;;;;;6174560;28;20361;-82
2021/08/21 11:10:30;;;;;;;6.53;5.32;;;33.50;70.50;;;;;;6174613;28;20030;-80
2021/08/21 11:14:22;;;;;;;5.80;5.25;;;33.60;74.20;;;;;;6157378;28;20023;-83
2021/08/21 11:17:30;;;;;;;7.10;4.95;;;33.20;65.30;;;;;;6174217;28;20034;-80
2021/08/21 11:20:33;;;;;;;5.90;5.30;;;32.90;65.00;;;;;;6158809;28;20465;-82
2021/08/21 11:23:50;;;;;;;6.28;5.65;;;32.60;90.60;;;;;;6157144;28;20105;-81
2021/08/21 11:27:12;;;;;;;6.25;5.53;;;32.50;66.30;;;;;;6174431;28;20035;-80
2021/08/21 11:30:18;;;;;;;6.82;5.85;;;32.60;66.80;;;;;;6174179;28;20083;-79
2021/08/21 11:33:18;;;;;;;5.30;4.80;;;32.80;66.90;;;;;;6141212;28;20038;-80
2021/08/21 11:36:22;;;;;;;6.22;5.47;;;32.60;65.80;;;;;;6174113;28;20062;-82
2021/08/21 11:39:22;;;;;;;8.73;4.85;;;32.90;90.30;;;;;;6156892;28;20050;-81
2021/08/21 11:42:23;;;;;;;5.53;4.93;;;32.70;90.40;;;;;;6174025;28;20070;-82
2021/08/21 11:45:24;;;;;;;5.05;4.43;;;32.40;64.10;;;;;;6156724;28;20034;-81
2021/08/21 11:48:29;;;;;;;5.25;4.75;;;32.10;89.00;;;;;;6142382;28;20353;-79
2021/08/21 11:51:29;;;;;;;5.93;4.45;;;31.90;90.10;;;;;;6160809;28;20050;-80
2021/08/21 11:54:30;;;;;;;6.27;4.57;;;;;;;;;;6178555;28;20033;-81
2021/08/21 11:57:41;;;;;;;5.85;5.13;;;32.00;69.90;;;;;;6161023;28;20309;-83
2021/08/21 12:00:44;;;;;;;8.13;4.93;;;32.10;74.00;;;;;;6177968;28;20039;-83
2021/08/21 12:06:45;;;;;;;6.03;4.67;;;32.10;65.20;;;;;;6177853;28;20073;-80
2021/08/21 12:09:58;;;;;;;7.32;4.70;;;32.10;64.70;;;;;;6177863;28;20282;-83
2021/08/21 12:12:58;;;;;;;10.95;5.15;;;32.20;64.90;;;;;;6160544;28;20102;-81
2021/08/21 12:16:07;;;;;;;9.88;4.70;;;32.10;65.40;;;;;;6177847;28;20022;-80
2021/08/21 12:19:08;;;;;;;15.05;5.57;;;31.50;65.40;;;;;;6160993;28;20038;-82
2021/08/21 12:22:09;;;;;;;9.52;5.20;;;31.70;65.20;;;;;;6160282;28;20408;-81
2021/08/21 12:25:10;;;;;;;5.90;4.70;;;31.60;66.10;;;;;;6160361;28;20105;-80
2021/08/21 12:28:14;;;;;;;6.85;5.15;;;31.60;67.90;;;;;;6177700;28;20027;-82
2021/08/21 12:31:16;;;;;;;5.72;5.22;;;31.70;66.90;;;;;;6177225;28;20102;-80
2021/08/21 12:34:18;;;;;;;5.40;4.65;;;31.70;67.10;;;;;;6160442;28;20074;-82
2021/08/21 12:37:20;;;;;;;7.40;4.53;;;31.60;67.90;;;;;;6177319;28;20050;-80
2021/08/21 12:40:21;;;;;;;6.07;5.10;;;31.50;67.10;;;;;;6160096;28;20039;-81
2021/08/21 12:43:27;;;;;;;5.70;4.90;;;31.60;67.70;;;;;;6177311;28;20042;-80
2021/08/21 12:46:27;;;;;;;6.10;4.43;;;31.60;69.00;;;;;;6160092;28;20262;-81
2021/08/21 12:49:35;;;;;;;5.90;4.57;;;31.50;66.10;;;;;;6159779;28;20476;-83
2021/08/21 12:52:36;;;;;;;6.07;5.15;;;31.40;67.00;;;;;;6176763;28;20046;-81
2021/08/21 12:55:36;;;;;;;5.50;5.00;;;31.40;67.70;;;;;;6159824;28;20033;-81
2021/08/21 12:58:37;;;;;;;5.43;4.50;;;31.20;67.10;;;;;;6176433;28;20413;-81
2021/08/21 13:01:38;;;;;;;6.70;4.53;;;31.10;68.50;;;;;;6159584;28;20021;-83
2021/08/21 13:04:40;;;;;;;6.43;4.90;;;31.10;66.00;;;;;;6159604;28;20030;-82
2021/08/21 13:07:47;;;;;;;5.70;4.78;;;31.10;67.00;;;;;;6159663;28;20023;-81
2021/08/21 13:10:49;;;;;;;6.65;4.57;;;31.20;66.70;;;;;;6159015;28;20046;-81
2021/08/21 13:13:50;;;;;;;5.63;4.90;;;31.30;67.20;;;;;;6159512;28;20054;-80
2021/08/21 13:16:51;;;;;;;5.10;4.60;;;31.30;67.30;;;;;;6159329;28;20022;-81
2021/08/21 13:19:51;;;;;;;5.15;4.65;;;31.30;65.30;;;;;;6158665;28;20034;-79
2021/08/21 13:22:54;;;;;;;5.17;4.67;;;31.30;78.60;;;;;;6159611;28;20449;-82
2021/08/21 13:25:55;;;;;;;5.30;4.28;;;31.30;65.40;;;;;;6176027;28;20258;-82
2021/08/21 13:28:55;;;;;;;6.47;4.78;;;31.00;78.20;;;;;;6159064;28;20054;-79
2021/08/21 13:31:56;;;;;;;7.27;4.73;;;30.60;89.70;;;;;;6158615;28;20023;-83
2021/08/21 13:34:56;;;;;;;7.05;4.40;;;30.20;81.10;;;;;;6176262;28;20062;-82
2021/08/21 13:37:57;;;;;;;6.20;4.57;;;30.50;92.10;;;;;;6175900;28;20039;-81
2021/08/21 13:40:58;;;;;;;5.32;4.75;;;30.10;86.30;;;;;;6142419;28;20042;-82
2021/08/21 13:43:59;;;;;;;5.03;4.53;;;30.10;90.60;;;;;;6175937;28;20023;-81
2021/08/21 13:46:59;;;;;;;5.70;4.73;;;30.00;63.10;;;;;;6158575;28;20038;-80
2021/08/21 13:50:00;;;;;;;7.65;4.78;;;29.60;91.40;;;;;;6158369;28;20457;-79
2021/08/21 13:53:01;;;;;;;6.30;4.87;;;29.70;76.60;;;;;;6175483;28;20026;-81
2021/08/21 13:56:02;;;;;;;6.00;5.40;;;;;;;;;;6175643;28;20029;-81
2021/08/21 13:59:03;;;;;;;;;;;29.90;73.20;;;;;;6175658;28;20043;-80
2021/08/21 14:02:04;;;;;;;7.43;4.70;;;30.00;76.50;;;;;;6175451;28;20044;-81
2021/08/21 14:05:05;;;;;;;5.30;4.80;;;30.10;76.50;;;;;;6175198;28;20457;-80
2021/08/21 14:08:06;;;;;;;;;;;30.20;67.70;;;;;;6175893;28;20035;-82
2021/08/21 14:11:06;;;;;;;5.40;4.90;;;30.60;64.50;;;;;;6157577;28;20394;-82
2021/08/21 14:14:07;;;;;;;4.80;4.30;;;29.80;65.00;;;;;;6158052;28;20070;-82
2021/08/21 14:17:08;;;;;;;7.22;6.10;;;30.30;65.80;;;;;;6174922;28;20014;-81
2021/08/21 14:20:09;;;;;;;9.33;5.57;;;30.10;64.30;;;;;;6174885;28;20065;-81
2021/08/21 14:23:10;;;;;;;5.00;4.50;;;29.80;66.30;;;;;;6173672;28;20376;-81
2021/08/21 14:26:11;;;;;;;5.28;4.78;;;29.50;67.40;;;;;;6174888;28;20046;-81
2021/08/21 14:29:11;;;;;;;5.00;4.50;;;29.50;66.80;;;;;;6157801;28;20023;-82
2021/08/21 14:32:12;;;;;;;6.93;5.30;;;29.50;67.40;;;;;;6174970;28;20027;-80
2021/08/21 14:35:12;;;;;;;5.90;4.97;;;29.40;67.50;;;;;;6157588;28;20029;-80
2021/08/21 14:38:13;;;;;;;7.90;5.00;;;29.40;67.90;;;;;;6174325;28;20370;-80
2021/08/21 14:41:14;;;;;;;7.05;4.63;;;29.50;67.70;;;;;;6157659;28;20050;-81
2021/08/21 14:44:14;;;;;;;6.10;4.83;;;29.30;67.00;;;;;;6157642;28;20049;-79
2021/08/21 14:47:19;;;;;;;9.63;5.23;;;29.40;67.60;;;;;;6174591;28;20023;-80
2021/08/21 14:50:20;;;;;;;5.53;5.03;;;29.50;67.90;;;;;;6158225;28;20034;-79
2021/08/21 14:53:21;;;;;;;5.00;4.50;;;29.40;67.90;;;;;;6174732;28;20031;-81
2021/08/21 14:56:21;;;;;;;9.63;5.17;;;29.30;67.40;;;;;;6175188;28;20027;-80
2021/08/21 14:59:22;;;;;;;7.87;5.43;;;29.40;67.30;;;;;;6174384;28;20042;-82
2021/08/21 15:02:23;;;;;;;9.37;5.10;;;;;;;;;;6174509;28;20074;-81
2021/08/21 15:05:23;;;;;;;11.30;5.00;;;29.50;68.10;;;;;;6174412;28;20430;-80
2021/08/21 15:08:24;;;;;;;8.10;4.97;;;29.40;66.10;;;;;;6174449;28;20034;-82
2021/08/21 15:11:25;;;;;;;6.30;4.50;;;29.40;66.70;;;;;;6174460;28;20030;-80
2021/08/21 15:14:25;;;;;;;9.45;4.80;;;29.30;68.50;;;;;;6174251;28;20018;-80
2021/08/21 15:17:26;;;;;;;6.00;4.57;;;29.30;69.20;;;;;;6174426;28;20062;-79
2021/08/21 15:20:27;;;;;;;5.82;5.22;;;29.10;67.20;;;;;;6174332;28;20468;-79
2021/08/21 15:23:28;;;;;;;5.10;4.57;;;29.10;67.60;;;;;;6158524;28;20031;-81
2021/08/21 15:26:29;;;;;;;5.32;4.07;;;29.10;66.60;;;;;;6161746;28;20029;-80
2021/08/21 15:29:32;;;;;;;5.23;4.63;;;29.10;69.20;;;;;;6161823;28;20030;-82
2021/08/21 15:32:32;;;;;;;5.85;4.72;;;29.00;68.80;;;;;;6178540;28;20441;-81
2021/08/21 15:35:33;;;;;;;5.10;4.60;;;29.10;68.50;;;;;;6161243;28;20057;-81
2021/08/21 15:38:34;;;;;;;5.30;4.80;;;29.10;68.80;;;;;;6178662;28;20047;-79
2021/08/21 15:41:35;;;;;;;6.15;4.40;;;29.20;69.20;;;;;;6161928;28;20031;-80
2021/08/21 15:44:36;;;;;;;5.07;4.57;;;29.20;69.30;;;;;;6161224;28;20067;-81
2021/08/21 15:47:37;;;;;;;4.80;4.40;;;29.20;68.20;;;;;;6161175;28;20500;-80
2021/08/21 15:50:38;;;;;;;5.70;5.10;;;29.20;69.40;;;;;;6145092;28;20022;-81
2021/08/21 15:53:39;;;;;;;6.00;5.30;;;29.10;69.70;;;;;;6178165;28;20442;-80
2021/08/21 15:56:39;;;;;;;6.90;5.10;;;29.20;67.90;;;;;;6178401;28;20023;-80
2021/08/21 15:59:42;;;;;;;5.30;4.80;;;29.10;67.00;;;;;;6160709;28;20113;-82